Time;durP1;ratioP1;P1;durP2;ratioP2;P2;SDS_P1;SDS_P2;PMS_P1;PMS_P2;Temp;Humidity;BMP_temperature;BMP_pressure;BME280_temperature;BME280_humidity;BME280_pressure;Samples;Min_cycle;Max_cycle;Signal;HPM_P1;HPM_P2
2022/04/04 00:01:23;;;;;;;5.40;2.53;;;;;;;11.11;53.83;101024.91;4989102;28;20038;-83
2022/04/04 00:03:49;;;;;;;7.72;2.58;;;;;;;11.19;53.67;101018.34;4979445;28;20033;-82
2022/04/04 00:06:14;;;;;;;6.35;2.50;;;;;;;11.37;53.25;101016.38;4993658;28;20384;-83
2022/04/04 00:08:40;;;;;;;4.63;2.80;;;;;;;11.40;53.41;101009.16;4990885;28;20124;-82
2022/04/04 00:11:06;;;;;;;6.53;2.45;;;;;;;11.39;53.68;101009.25;4974266;28;20503;-83
2022/04/04 00:13:32;;;;;;;5.38;3.03;;;;;;;11.48;53.21;101004.25;4973994;28;20473;-83
2022/04/04 00:15:57;;;;;;;5.35;2.13;;;;;;;11.48;53.39;100995.53;4974281;28;20037;-83
2022/04/04 00:18:23;;;;;;;8.50;1.90;;;;;;;11.25;53.92;100991.69;4974492;28;20025;-82
2022/04/04 00:20:51;;;;;;;6.32;2.10;;;;;;;11.30;54.17;100987.00;4988746;28;20535;-82
2022/04/04 00:23:18;;;;;;;3.83;2.13;;;;;;;11.27;54.23;100995.06;4997772;28;20499;-81
2022/04/04 00:25:45;;;;;;;5.72;2.20;;;;;;;11.44;53.99;100991.41;4996742;28;20022;-82
2022/04/04 00:28:11;;;;;;;8.00;2.10;;;;;;;11.48;53.96;100980.59;4997442;28;20042;-82
2022/04/04 00:30:37;;;;;;;6.65;2.60;;;;;;;11.20;54.87;100984.09;4980126;28;20026;-84
2022/04/04 00:33:04;;;;;;;5.35;1.70;;;;;;;11.04;55.07;100973.66;4978537;28;20041;-82
2022/04/04 00:35:30;;;;;;;4.20;1.90;;;;;;;11.08;55.17;100969.91;4994609;28;20396;-82
2022/04/04 00:38:01;;;;;;;3.78;1.70;;;;;;;11.26;55.14;100969.72;4997264;28;20106;-83
2022/04/04 00:40:27;;;;;;;3.55;1.80;;;;;;;11.37;54.58;100969.06;4984291;28;20065;-82
2022/04/04 00:42:53;;;;;;;3.83;1.77;;;;;;;11.44;54.35;100960.69;4978229;28;20031;-82
2022/04/04 00:45:19;;;;;;;6.22;2.30;;;;;;;11.24;55.03;100958.47;4978151;28;20423;-82
2022/04/04 00:47:44;;;;;;;4.28;2.08;;;;;;;11.22;55.23;100955.94;4978513;28;20116;-82
2022/04/04 00:50:10;;;;;;;11.13;2.60;;;;;;;11.16;55.05;100947.56;4994862;28;20042;-83
2022/04/04 00:52:35;;;;;;;4.60;2.28;;;;;;;11.16;55.00;100937.03;4997632;28;20035;-82
2022/04/04 00:55:01;;;;;;;5.88;2.30;;;;;;;11.31;54.61;100941.34;4982476;28;20027;-82
2022/04/04 00:57:28;;;;;;;5.45;2.38;;;;;;;11.37;54.69;100932.25;4992689;28;20473;-82
2022/04/04 00:59:54;;;;;;;6.38;2.80;;;;;;;11.12;55.23;100931.16;4989390;28;20030;-82
2022/04/04 01:02:19;;;;;;;6.65;2.38;;;;;;;11.04;55.66;100930.78;4996825;28;20033;-82
2022/04/04 01:04:45;;;;;;;9.60;2.40;;;;;;;10.98;55.72;100926.75;4980103;28;20027;-83
2022/04/04 01:07:10;;;;;;;3.03;2.28;;;;;;;11.09;55.67;100932.16;4977175;28;20530;-83
2022/04/04 01:09:35;;;;;;;2.58;2.20;;;;;;;11.01;55.77;100923.09;4985839;28;20037;-82
2022/04/04 01:12:07;;;;;;;3.67;2.00;;;;;;;11.20;55.30;100925.44;4996371;28;20031;-82
2022/04/04 01:14:34;;;;;;;3.03;2.20;;;;;;;11.15;55.54;100922.22;4987969;28;20408;-82
2022/04/04 01:17:00;;;;;;;5.53;1.95;;;;;;;11.21;55.51;100906.06;4977250;28;20035;-82
2022/04/04 01:19:26;;;;;;;3.78;2.00;;;;;;;11.27;55.18;100910.94;4988269;28;20042;-82
2022/04/04 01:21:53;;;;;;;2.88;1.70;;;;;;;11.07;55.63;100905.13;4996275;28;20392;-83
2022/04/04 01:24:18;;;;;;;2.80;1.80;;;;;;;11.01;55.82;100905.53;4990503;28;20037;-83
2022/04/04 01:26:52;;;;;;;4.95;2.00;;;;;;;11.11;55.56;100890.03;4977494;28;20019;-83
2022/04/04 01:29:19;;;;;;;4.18;1.38;;;;;;;10.78;56.31;100893.81;4979296;28;20571;-83
2022/04/04 01:31:46;;;;;;;3.30;1.98;;;;;;;11.16;55.41;100897.63;4990420;28;20392;-83
2022/04/04 01:34:11;;;;;;;6.47;2.47;;;;;;;11.13;55.67;100884.69;4985934;28;20029;-82
2022/04/04 01:36:36;;;;;;;5.60;1.60;;;;;;;11.14;55.27;100881.09;4994714;28;20022;-82
2022/04/04 01:39:02;;;;;;;4.57;2.00;;;;;;;11.25;55.26;100881.28;4991544;28;20027;-82
2022/04/04 01:41:27;;;;;;;3.92;2.05;;;;;;;11.16;55.41;100873.97;4975935;28;20053;-82
2022/04/04 01:43:53;;;;;;;3.53;1.92;;;;;;;11.19;55.17;100873.78;4975844;28;20022;-83
2022/04/04 01:46:24;;;;;;;1.58;1.45;;;;;;;11.30;55.47;100868.69;4975687;28;20045;-82
2022/04/04 01:48:50;;;;;;;4.23;1.93;;;;;;;11.37;55.31;100864.72;4986096;28;20034;-82
2022/04/04 01:51:16;;;;;;;4.40;2.08;;;;;;;11.33;55.45;100860.59;4994850;28;20487;-82
2022/04/04 01:53:41;;;;;;;4.88;2.10;;;;;;;11.17;55.33;100852.00;4994926;28;20117;-82
2022/04/04 01:56:07;;;;;;;3.17;1.88;;;;;;;11.20;55.88;100847.41;4994971;28;20073;-82
2022/04/04 01:58:33;;;;;;;3.15;2.03;;;;;;;11.22;55.72;100842.91;4994673;28;20109;-82
2022/04/04 02:01:01;;;;;;;2.95;2.10;;;;;;;11.09;56.29;100834.94;4994478;28;20480;-82
2022/04/04 02:03:28;;;;;;;5.88;2.50;;;;;;;11.17;56.22;100829.19;4985026;28;20493;-81
2022/04/04 02:05:54;;;;;;;3.53;2.20;;;;;;;11.13;56.25;100832.13;4975383;28;20029;-82
2022/04/04 02:08:19;;;;;;;3.58;2.20;;;;;;;10.85;56.88;100820.72;4975706;28;20027;-82
2022/04/04 02:10:45;;;;;;;4.28;2.63;;;;;;;11.04;56.89;100816.00;4975363;28;20023;-82
2022/04/04 02:13:10;;;;;;;6.13;2.38;;;;;;;10.58;58.13;100808.34;4975394;28;20536;-82
2022/04/04 02:15:36;;;;;;;3.92;2.40;;;;;;;10.85;57.88;100810.22;4975005;28;20027;-82
2022/04/04 02:18:02;;;;;;;3.90;2.55;;;;;;;10.63;59.03;100801.03;4982718;28;20362;-83
2022/04/04 02:20:27;;;;;;;3.58;2.50;;;;;;;10.54;59.29;100798.13;4990635;28;20026;-83
2022/04/04 02:22:53;;;;;;;5.05;2.67;;;;;;;10.59;59.20;100798.72;4993972;28;20029;-83
2022/04/04 02:25:18;;;;;;;4.72;2.60;;;;;;;10.69;59.48;100795.41;4994231;28;20026;-83
2022/04/04 02:27:43;;;;;;;3.35;2.33;;;;;;;10.49;59.40;100787.94;4994034;28;20109;-83
2022/04/04 02:30:10;;;;;;;4.15;2.17;;;;;;;10.56;59.87;100785.75;4993894;28;20084;-82
2022/04/04 02:32:36;;;;;;;5.20;2.30;;;;;;;10.57;60.12;100777.78;4994040;28;20030;-83
2022/04/04 02:35:03;;;;;;;4.97;2.40;;;;;;;10.35;60.66;100780.91;4989773;28;20053;-82
2022/04/04 02:37:28;;;;;;;3.55;2.30;;;;;;;10.56;60.06;100778.72;4975343;28;20117;-82
2022/04/04 02:39:53;;;;;;;4.45;2.33;;;;;;;10.46;59.84;100767.94;4975106;28;20090;-82
2022/04/04 02:42:19;;;;;;;6.65;3.50;;;;;;;10.34;60.45;100762.63;4975346;28;20359;-82
2022/04/04 02:44:44;;;;;;;4.30;2.80;;;;;;;10.19;60.81;100761.72;4973926;28;20105;-82
2022/04/04 02:47:09;;;;;;;6.30;2.55;;;;;;;10.44;60.88;100747.97;4973613;28;20123;-82
2022/04/04 02:49:35;;;;;;;5.63;2.30;;;;;;;10.41;60.27;100762.16;4977204;28;20038;-83
2022/04/04 02:52:01;;;;;;;5.65;2.90;;;;;;;10.35;60.31;100759.03;4987207;28;20026;-83
2022/04/04 02:54:26;;;;;;;5.45;2.78;;;;;;;10.49;60.50;100751.19;4974629;28;20107;-82
2022/04/04 02:56:52;;;;;;;5.15;3.03;;;;;;;10.52;60.39;100745.72;4973644;28;20081;-82
2022/04/04 02:59:17;;;;;;;11.52;4.25;;;;;;;10.48;60.45;100737.19;4974765;28;20385;-82
2022/04/04 03:01:48;;;;;;;5.97;3.17;;;;;;;10.32;60.80;100734.66;4974675;28;20488;-82
2022/04/04 03:04:18;;;;;;;3.58;2.60;;;;;;;10.74;60.06;100718.09;4973457;28;20105;-82
2022/04/04 03:06:44;;;;;;;4.30;2.72;;;;;;;10.49;60.76;100717.06;4976729;28;20081;-82
2022/04/04 03:09:10;;;;;;;6.28;3.53;;;;;;;10.69;60.08;100713.16;4987638;28;20034;-82
2022/04/04 03:11:35;;;;;;;4.95;2.67;;;;;;;10.42;60.87;100710.47;4974129;28;20135;-82
2022/04/04 03:14:00;;;;;;;4.75;2.85;;;;;;;10.43;61.05;100705.16;4974463;28;20029;-83
2022/04/04 03:16:26;;;;;;;2.75;2.22;;;;;;;10.32;61.98;100703.16;4973966;28;20034;-82
2022/04/04 03:18:54;;;;;;;6.78;2.75;;;;;;;10.38;61.64;100695.88;4974390;28;20069;-82
2022/04/04 03:21:20;;;;;;;47.42;5.57;;;;;;;10.39;61.38;100695.78;4974055;28;20438;-82
2022/04/04 03:23:46;;;;;;;6.35;3.05;;;;;;;10.47;61.46;100690.06;4974269;28;20405;-82
2022/04/04 03:26:12;;;;;;;5.13;3.15;;;;;;;10.27;62.16;100683.41;4974164;28;20035;-82
2022/04/04 03:28:39;;;;;;;2.88;2.42;;;;;;;10.60;61.03;100682.22;4973811;28;20101;-83
2022/04/04 03:31:05;;;;;;;3.38;2.53;;;;;;;10.50;61.93;100668.84;4973992;28;20026;-82
2022/04/04 03:33:31;;;;;;;4.22;2.95;;;;;;;10.69;61.17;100671.13;4974097;28;20081;-83
2022/04/04 03:35:58;;;;;;;7.15;3.15;;;;;;;10.94;60.80;100662.53;4973700;28;20389;-83
2022/04/04 03:38:23;;;;;;;2.97;2.35;;;;;;;10.67;61.81;100658.09;4977185;28;20057;-83
2022/04/04 03:40:49;;;;;;;5.18;2.75;;;;;;;10.82;61.45;100661.53;4992875;28;20085;-82
2022/04/04 03:43:14;;;;;;;10.45;3.10;;;;;;;11.10;60.34;100650.06;4993089;28;20033;-82
2022/04/04 03:45:40;;;;;;;3.78;2.67;;;;;;;10.84;61.97;100646.53;4993295;28;20034;-83
2022/04/04 03:48:05;;;;;;;4.15;2.97;;;;;;;10.69;62.44;100637.00;4993006;28;20026;-83
2022/04/04 03:50:31;;;;;;;8.93;3.20;;;;;;;10.56;63.28;100644.81;4991955;28;20101;-82
2022/04/04 03:52:57;;;;;;;4.38;2.80;;;;;;;10.70;62.42;100642.16;4992100;28;20019;-83
2022/04/04 03:55:26;;;;;;;4.30;2.80;;;;;;;10.56;63.57;100631.69;4992126;28;20030;-82
2022/04/04 03:57:52;;;;;;;4.40;2.45;;;;;;;10.30;64.37;100626.31;4992766;28;20070;-83
2022/04/04 04:00:18;;;;;;;3.63;2.80;;;;;;;10.67;63.14;100623.97;4992536;28;20437;-83
2022/04/04 04:02:44;;;;;;;5.68;2.40;;;;;;;10.66;63.39;100614.41;4992636;28;20026;-82
2022/04/04 04:05:10;;;;;;;7.13;3.47;;;;;;;10.66;63.54;100611.78;4992509;28;20020;-82
2022/04/04 04:07:36;;;;;;;4.80;3.35;;;;;;;10.28;64.09;100609.78;4976970;28;20089;-82
2022/04/04 04:10:01;;;;;;;7.88;3.00;;;;;;;10.28;64.77;100601.91;4973426;28;20474;-82
2022/04/04 04:12:27;;;;;;;4.57;2.70;;;;;;;10.35;64.64;100606.81;4973032;28;20110;-82
2022/04/04 04:14:53;;;;;;;3.92;2.83;;;;;;;10.37;65.00;100589.16;4973160;28;20551;-82
2022/04/04 04:17:20;;;;;;;6.63;2.75;;;;;;;10.47;64.68;100583.25;4973079;28;20094;-82
2022/04/04 04:22:31;;;;;;;7.28;3.25;;;;;;;10.38;64.69;100580.38;4973813;28;20045;-83
2022/04/04 04:24:57;;;;;;;3.75;2.78;;;;;;;10.58;64.35;100572.03;4972651;28;20030;-83
2022/04/04 04:27:22;;;;;;;4.93;2.60;;;;;;;10.40;64.68;100555.69;4972668;28;20027;-83
2022/04/04 04:29:48;;;;;;;6.20;3.78;;;;;;;10.42;65.12;100555.59;4972474;28;20404;-82
2022/04/04 04:32:13;;;;;;;5.43;3.50;;;;;;;10.41;65.80;100543.44;4972713;28;20031;-83
2022/04/04 04:34:39;;;;;;;7.10;3.13;;;;;;;10.44;65.24;100536.19;4972915;28;20037;-82
2022/04/04 04:37:05;;;;;;;6.85;3.00;;;;;;;10.83;64.08;100531.88;4987759;28;20022;-82
2022/04/04 04:39:30;;;;;;;6.78;3.25;;;;;;;10.75;64.50;100535.97;4990634;28;20481;-83
2022/04/04 04:41:56;;;;;;;9.02;3.28;;;;;;;10.59;65.00;100528.25;4992338;28;20066;-82
2022/04/04 04:44:22;;;;;;;6.43;3.08;;;;;;;10.67;64.86;100523.34;4992245;28;20054;-82
2022/04/04 04:46:48;;;;;;;6.53;3.13;;;;;;;10.48;65.17;100526.31;4992089;28;20105;-82
2022/04/04 04:49:14;;;;;;;7.55;3.03;;;;;;;10.48;65.82;100521.91;4992290;28;20030;-82
2022/04/04 04:51:41;;;;;;;7.35;2.80;;;;;;;10.35;66.47;100517.56;4992222;28;20469;-82
2022/04/04 04:54:08;;;;;;;3.25;2.95;;;;;;;10.32;66.39;100513.38;4977831;28;20059;-82
2022/04/04 04:56:34;;;;;;;4.72;2.78;;;;;;;10.35;66.57;100513.19;4973075;28;20027;-82
2022/04/04 04:58:59;;;;;;;4.07;2.55;;;;;;;10.54;66.02;100512.78;4972873;28;20114;-82
2022/04/04 05:01:25;;;;;;;5.63;2.75;;;;;;;10.47;66.14;100514.16;4972754;28;20106;-82
2022/04/04 05:03:51;;;;;;;5.35;2.42;;;;;;;10.44;66.68;100506.47;4972766;28;20108;-82
2022/04/04 05:06:16;;;;;;;6.18;2.78;;;;;;;10.42;66.94;100495.22;4973491;28;20027;-82
2022/04/04 05:08:43;;;;;;;3.78;2.55;;;;;;;10.21;67.47;100497.44;4989156;28;20035;-82
2022/04/04 05:11:08;;;;;;;6.78;2.72;;;;;;;10.04;68.68;100488.06;4995519;28;20030;-83
2022/04/04 05:13:33;;;;;;;6.80;2.78;;;;;;;10.19;67.80;100480.94;4994251;28;20031;-83
2022/04/04 05:15:59;;;;;;;4.35;2.67;;;;;;;10.06;69.09;100491.41;4996077;28;20029;-82
2022/04/04 05:18:25;;;;;;;7.03;2.60;;;;;;;10.55;67.06;100488.25;4994121;28;20468;-83
2022/04/04 05:20:50;;;;;;;2.47;2.20;;;;;;;10.70;66.76;100481.97;4995482;28;20396;-82
2022/04/04 05:23:15;;;;;;;3.72;1.98;;;;;;;10.87;66.30;100480.81;4983756;28;20085;-82
2022/04/04 05:25:41;;;;;;;4.35;2.22;;;;;;;10.88;66.51;100484.28;4976020;28;20027;-83
2022/04/04 05:28:07;;;;;;;3.17;2.20;;;;;;;10.91;66.15;100473.56;4976020;28;20041;-83
2022/04/04 05:30:34;;;;;;;4.43;1.90;;;;;;;10.91;66.31;100479.66;4976001;28;20038;-82
2022/04/04 05:32:59;;;;;;;3.50;2.15;;;;;;;11.04;66.30;100476.22;4975782;28;20034;-82
2022/04/04 05:35:25;;;;;;;3.85;1.95;;;;;;;10.87;66.71;100477.34;4975775;28;20026;-83
2022/04/04 05:37:54;;;;;;;2.83;1.80;;;;;;;10.96;66.48;100475.88;4984316;28;20254;-83
2022/04/04 05:40:21;;;;;;;3.45;1.67;;;;;;;11.01;66.60;100473.78;4980405;28;20019;-82
2022/04/04 05:42:47;;;;;;;1.77;1.42;;;;;;;11.03;66.40;100462.22;4992692;28;20034;-83
2022/04/04 05:45:12;;;;;;;1.88;1.35;;;;;;;10.99;66.87;100473.88;4993902;28;20026;-83
2022/04/04 05:47:37;;;;;;;2.85;1.55;;;;;;;10.88;66.98;100469.38;4994444;28;20022;-83
2022/04/04 05:50:04;;;;;;;2.15;1.40;;;;;;;11.02;66.96;100471.06;4979777;28;20031;-83
2022/04/04 05:52:29;;;;;;;2.42;1.48;;;;;;;10.98;67.19;100466.97;4980970;28;20072;-83
2022/04/04 05:54:57;;;;;;;2.92;1.52;;;;;;;11.06;67.03;100467.28;4993372;28;20063;-83
2022/04/04 05:57:35;;;;;;;1.73;1.50;;;;;;;11.00;67.18;100465.06;4995004;28;20022;-83
2022/04/04 06:00:03;;;;;;;3.60;1.23;;;;;;;10.96;67.05;100455.72;4988160;28;20058;-83
2022/04/04 06:02:28;;;;;;;1.90;1.45;;;;;;;10.98;67.11;100459.06;4975155;28;20077;-82
2022/04/04 06:04:54;;;;;;;2.05;1.38;;;;;;;11.07;67.05;100453.16;4975757;28;20397;-83
2022/04/04 06:07:19;;;;;;;1.83;1.23;;;;;;;11.07;67.54;100455.78;4983829;28;20094;-83
2022/04/04 06:09:45;;;;;;;1.42;1.20;;;;;;;11.00;67.95;100441.41;4978468;28;20489;-83
2022/04/04 06:12:11;;;;;;;2.25;1.33;;;;;;;10.99;68.22;100455.50;4976383;28;20030;-82
2022/04/04 06:14:37;;;;;;;1.88;1.40;;;;;;;11.03;67.69;100446.44;4984209;28;20041;-83
2022/04/04 06:17:06;;;;;;;2.20;1.70;;;;;;;11.25;67.49;100447.59;4980416;28;20511;-82
2022/04/04 06:19:34;;;;;;;2.22;1.52;;;;;;;11.20;67.77;100439.19;4990323;28;20034;-82
2022/04/04 06:22:00;;;;;;;2.72;1.17;;;;;;;11.24;67.48;100443.28;4983340;28;20030;-82
2022/04/04 06:24:25;;;;;;;1.30;1.20;;;;;;;11.08;68.52;100439.09;4990585;28;20496;-83
2022/04/04 06:26:50;;;;;;;1.40;1.30;;;;;;;11.17;68.40;100436.78;4994338;28;20388;-83
2022/04/04 06:29:16;;;;;;;1.95;1.42;;;;;;;11.09;68.46;100435.50;4986015;28;20018;-82
2022/04/04 06:31:41;;;;;;;2.38;1.83;;;;;;;11.02;68.69;100433.41;4983779;28;20480;-83
2022/04/04 06:34:08;;;;;;;2.17;1.40;;;;;;;11.06;68.97;100430.47;4989149;28;20034;-82
2022/04/04 06:36:34;;;;;;;1.85;1.55;;;;;;;11.19;68.13;100425.19;4974452;28;20026;-83
2022/04/04 06:38:59;;;;;;;2.70;1.30;;;;;;;11.09;68.55;100422.38;4973806;28;20097;-83
2022/04/04 06:41:25;;;;;;;2.33;1.40;;;;;;;11.16;68.93;100414.91;4974620;28;20450;-83
2022/04/04 06:43:51;;;;;;;1.60;1.10;;;;;;;11.38;67.80;100414.22;4976798;28;20023;-83
2022/04/04 06:46:17;;;;;;;6.20;1.58;;;;;;;11.25;68.65;100411.63;4985691;28;20082;-83
2022/04/04 06:48:45;;;;;;;2.67;2.42;;;;;;;11.38;68.47;100416.03;4973803;28;20386;-83
2022/04/04 06:51:11;;;;;;;3.22;1.20;;;;;;;11.39;68.99;100418.53;4972878;28;20026;-82
2022/04/04 06:53:37;;;;;;;4.68;1.40;;;;;;;11.46;68.55;100416.31;4974871;28;20101;-82
2022/04/04 06:56:03;;;;;;;1.45;0.93;;;;;;;11.57;68.31;100411.13;4986451;28;20366;-82
2022/04/04 06:58:28;;;;;;;1.52;0.85;;;;;;;11.57;68.16;100408.50;4977341;28;20084;-83
2022/04/04 07:00:54;;;;;;;2.08;1.05;;;;;;;11.37;69.05;100407.28;4981766;28;20418;-83
2022/04/04 07:03:19;;;;;;;1.13;0.77;;;;;;;11.58;68.77;100414.59;4994301;28;20030;-83
2022/04/04 07:05:44;;;;;;;3.08;1.17;;;;;;;11.73;68.03;100402.09;4974921;28;20069;-83
2022/04/04 07:08:10;;;;;;;1.85;1.20;;;;;;;11.74;68.18;100394.13;4986768;28;20149;-83
2022/04/04 07:10:36;;;;;;;1.60;1.00;;;;;;;11.79;68.47;100401.66;4992437;28;20050;-83
2022/04/04 07:13:02;;;;;;;1.45;0.85;;;;;;;11.98;68.03;100391.50;4973935;28;20485;-83
2022/04/04 07:15:27;;;;;;;1.02;0.88;;;;;;;11.97;68.21;100394.25;4987570;28;20117;-83
2022/04/04 07:17:53;;;;;;;1.30;0.90;;;;;;;11.96;68.71;100382.03;4992886;28;20014;-83
2022/04/04 07:20:19;;;;;;;1.05;0.95;;;;;;;12.00;68.61;100379.06;4992597;28;20037;-83
2022/04/04 07:22:44;;;;;;;1.83;0.80;;;;;;;12.15;68.58;100382.34;4993317;28;20030;-82
2022/04/04 07:25:10;;;;;;;1.48;0.93;;;;;;;12.25;68.38;100377.25;4973831;28;20025;-83
2022/04/04 07:27:40;;;;;;;1.67;0.80;;;;;;;12.23;68.73;100374.72;4979235;28;20026;-83
2022/04/04 07:30:07;;;;;;;2.60;0.90;;;;;;;12.17;69.10;100375.19;4990631;28;20030;-82
2022/04/04 07:32:39;;;;;;;3.97;0.90;;;;;;;12.47;68.59;100377.28;4973510;28;20037;-83
2022/04/04 07:35:06;;;;;;;1.48;0.70;;;;;;;12.49;68.64;100378.00;4973655;28;20047;-82
2022/04/04 07:37:31;;;;;;;1.45;0.90;;;;;;;12.55;68.58;100375.88;4973262;28;20113;-82
2022/04/04 07:39:58;;;;;;;2.55;1.00;;;;;;;12.65;68.49;100372.38;4984104;28;20109;-82
2022/04/04 07:42:23;;;;;;;3.45;1.20;;;;;;;12.66;68.76;100374.09;4983481;28;20027;-82
2022/04/04 07:44:49;;;;;;;0.77;0.52;;;;;;;12.67;69.39;100373.09;4984574;28;20030;-82
2022/04/04 07:47:14;;;;;;;2.00;0.63;;;;;;;12.81;69.14;100363.31;4984621;28;20037;-82
2022/04/04 07:49:40;;;;;;;1.95;0.75;;;;;;;13.02;68.67;100358.97;4976273;28;20418;-82
2022/04/04 07:52:05;;;;;;;1.70;0.80;;;;;;;12.87;69.82;100361.03;4991482;28;20038;-82
2022/04/04 07:54:31;;;;;;;0.85;0.52;;;;;;;12.88;70.10;100359.25;4992735;28;20444;-82
2022/04/04 07:56:56;;;;;;;1.63;0.50;;;;;;;12.95;70.26;100360.41;4992604;28;20034;-82
2022/04/04 07:59:24;;;;;;;2.35;0.82;;;;;;;13.14;70.13;100358.97;4976764;28;20532;-82
2022/04/04 08:01:50;;;;;;;1.90;0.77;;;;;;;13.15;70.25;100355.38;4973844;28;20035;-82
2022/04/04 08:04:17;;;;;;;2.20;0.90;;;;;;;13.18;70.29;100347.22;4973319;28;20033;-82
2022/04/04 08:06:42;;;;;;;2.13;0.77;;;;;;;13.31;70.10;100349.75;4987158;28;20030;-82
2022/04/04 08:09:08;;;;;;;2.58;0.82;;;;;;;13.24;70.47;100344.09;4983938;28;20026;-82
2022/04/04 08:11:34;;;;;;;4.60;1.33;;;;;;;13.37;70.35;100336.91;4973052;28;20030;-82
2022/04/04 08:13:59;;;;;;;2.72;1.75;;;;;;;13.32;70.77;100335.59;4972863;28;20089;-82
2022/04/04 08:16:26;;;;;;;2.53;1.00;;;;;;;13.37;70.77;100339.56;4973907;28;20114;-82
2022/04/04 08:18:53;;;;;;;4.30;1.35;;;;;;;13.54;70.26;100334.69;4976199;28;20021;-82
2022/04/04 08:21:19;;;;;;;1.85;1.10;;;;;;;13.46;71.09;100319.50;4990489;28;20504;-82
2022/04/04 08:23:44;;;;;;;5.10;1.48;;;;;;;13.63;70.95;100323.41;4990671;28;20363;-82
2022/04/04 08:26:10;;;;;;;2.97;1.30;;;;;;;13.43;71.93;100315.31;4989026;28;20065;-82
2022/04/04 08:28:37;;;;;;;2.22;1.27;;;;;;;13.79;70.56;100307.97;4972809;28;20023;-82
2022/04/04 08:31:03;;;;;;;5.57;2.05;;;;;;;13.84;70.47;100320.78;4975889;28;20427;-82
2022/04/04 08:33:28;;;;;;;6.57;2.35;;;;;;;13.83;71.36;100314.66;4984655;28;20030;-82
2022/04/04 08:35:54;;;;;;;5.60;1.70;;;;;;;13.99;70.82;100311.59;4971608;28;20031;-82
2022/04/04 08:38:20;;;;;;;7.82;2.33;;;;;;;14.06;70.24;100314.56;4991498;28;20018;-82
2022/04/04 08:40:48;;;;;;;3.70;1.92;;;;;;;14.01;70.73;100311.47;4988754;28;20168;-82
2022/04/04 08:43:16;;;;;;;5.30;2.05;;;;;;;14.09;70.89;100303.72;4977894;28;20039;-83
2022/04/04 08:45:42;;;;;;;3.67;2.17;;;;;;;14.01;70.81;100304.38;4985537;28;20112;-83
2022/04/04 08:48:09;;;;;;;7.28;2.05;;;;;;;14.06;71.33;100309.28;4982552;28;20503;-83
2022/04/04 08:50:37;;;;;;;5.05;2.58;;;;;;;14.08;71.31;100294.97;4990659;28;20030;-82
2022/04/04 08:53:04;;;;;;;7.88;2.85;;;;;;;14.17;70.73;100300.44;4983853;28;20509;-82
2022/04/04 08:55:30;;;;;;;6.20;2.38;;;;;;;14.15;71.42;100297.94;4992025;28;20117;-82
2022/04/04 08:57:56;;;;;;;7.97;2.65;;;;;;;14.24;70.42;100296.34;4995610;28;20066;-82
2022/04/04 09:00:22;;;;;;;5.47;2.67;;;;;;;14.32;70.78;100296.50;4995574;28;20508;-82
2022/04/04 09:03:03;;;;;;;6.50;2.70;;;;;;;14.36;70.75;100292.63;4995737;28;20058;-82
2022/04/04 09:05:31;;;;;;;8.70;3.83;;;;;;;14.42;70.60;100292.09;4989019;28;20516;-82
2022/04/04 09:08:03;;;;;;;8.40;3.60;;;;;;;14.53;69.92;100291.16;4979423;28;20034;-82
2022/04/04 09:10:37;;;;;;;8.60;3.67;;;;;;;14.49;70.38;100292.41;4991496;28;20034;-82
2022/04/04 09:13:13;;;;;;;10.57;4.45;;;;;;;14.53;70.43;100291.16;4979844;28;20464;-83
2022/04/04 09:16:10;;;;;;;7.93;3.83;;;;;;;14.77;69.25;100287.38;4995591;28;20030;-83
2022/04/04 09:18:35;;;;;;;6.63;3.97;;;;;;;14.46;70.75;100280.31;4980441;28;20058;-83
2022/04/04 09:21:01;;;;;;;8.45;4.47;;;;;;;14.66;70.43;100280.41;4976550;28;20043;-82
2022/04/04 09:23:50;;;;;;;12.20;4.65;;;;;;;14.86;69.70;100281.31;4994329;28;20053;-83
2022/04/04 09:26:33;;;;;;;12.48;5.68;;;;;;;14.83;70.24;100276.28;4995578;28;20022;-83
2022/04/04 09:29:20;;;;;;;11.93;5.35;;;;;;;14.96;69.68;100282.16;4986360;28;20027;-83
2022/04/04 09:31:58;;;;;;;11.98;4.75;;;;;;;15.03;69.55;100287.75;4975836;28;20390;-83
2022/04/04 09:34:24;;;;;;;15.05;6.35;;;;;;;15.12;69.25;100278.16;4977586;28;20041;-83
2022/04/04 09:36:49;;;;;;;13.48;5.60;;;;;;;15.10;69.42;100273.00;4977403;28;20367;-81
2022/04/04 09:39:16;;;;;;;14.85;5.38;;;;;;;15.07;69.20;100279.41;4990889;28;20025;-83
2022/04/04 09:41:42;;;;;;;13.57;6.22;;;;;;;15.01;69.31;100279.97;4979733;28;20522;-82
2022/04/04 09:44:09;;;;;;;14.82;6.05;;;;;;;15.02;69.43;100280.78;4976239;28;20030;-83
2022/04/04 09:46:36;;;;;;;13.68;5.95;;;;;;;15.16;69.08;100287.50;4982367;28;20032;-83
2022/04/04 09:49:20;;;;;;;12.85;6.40;;;;;;;14.96;70.34;100279.53;5004652;28;20532;-82
2022/04/04 09:51:51;;;;;;;13.20;6.00;;;;;;;15.17;69.95;100283.91;5012548;28;20443;-83
2022/04/04 09:54:26;;;;;;;13.43;6.87;;;;;;;15.31;69.66;100285.31;4985550;28;20023;-83
2022/04/04 09:57:09;;;;;;;14.25;7.13;;;;;;;15.49;69.28;100282.81;4984152;28;20035;-81
2022/04/04 09:59:37;;;;;;;12.57;6.55;;;;;;;15.54;68.97;100285.84;4983375;28;20130;-83
2022/04/04 10:02:03;;;;;;;10.23;6.72;;;;;;;15.49;68.94;100291.56;4992775;28;20062;-81
2022/04/04 10:04:32;;;;;;;9.30;6.80;;;;;;;15.41;68.67;100283.50;4985998;28;20065;-82
2022/04/04 10:07:00;;;;;;;13.15;6.95;;;;;;;15.52;68.76;100283.38;4994757;28;20026;-82
2022/04/04 10:09:26;;;;;;;14.55;6.70;;;;;;;15.57;68.70;100282.94;4988196;28;20508;-83
2022/04/04 10:11:52;;;;;;;14.93;7.95;;;;;;;15.60;67.84;100285.28;4974982;28;20015;-83
2022/04/04 10:14:18;;;;;;;9.68;6.90;;;;;;;15.68;68.16;100282.81;4975415;28;20030;-83
2022/04/04 10:16:45;;;;;;;13.70;7.40;;;;;;;15.84;67.80;100283.09;4975050;28;20469;-83
2022/04/04 10:19:11;;;;;;;14.10;6.85;;;;;;;15.79;68.32;100287.13;4973459;28;20394;-83
2022/04/04 10:21:37;;;;;;;14.70;7.38;;;;;;;15.76;68.79;100290.06;4974762;28;20031;-83
2022/04/04 10:24:06;;;;;;;10.75;6.78;;;;;;;15.84;67.87;100287.56;4979613;28;20027;-83
2022/04/04 10:26:33;;;;;;;13.80;6.70;;;;;;;15.71;68.19;100282.50;4992718;28;20030;-83
2022/04/04 10:29:08;;;;;;;18.75;7.85;;;;;;;15.77;68.03;100274.03;4993110;28;20030;-83
2022/04/04 10:31:46;;;;;;;13.35;6.85;;;;;;;16.03;67.55;100276.94;4994080;28;20035;-83
2022/04/04 10:34:17;;;;;;;13.20;7.10;;;;;;;15.78;68.10;100283.66;4994233;28;20038;-83
2022/04/04 10:36:56;;;;;;;16.45;7.10;;;;;;;15.98;67.47;100280.97;4989539;28;20393;-83
2022/04/04 10:39:51;;;;;;;16.30;7.57;;;;;;;15.80;67.93;100275.56;4973208;28;20030;-83
2022/04/04 10:42:24;;;;;;;21.25;7.88;;;;;;;15.92;67.93;100260.38;4965181;28;20421;-83
2022/04/04 10:44:57;;;;;;;18.73;7.10;;;;;;;15.91;67.67;100266.63;4974544;28;20026;-83
2022/04/04 10:47:24;;;;;;;15.85;7.32;;;;;;;16.13;67.35;100263.66;4974273;28;20516;-83
2022/04/04 10:49:50;;;;;;;16.05;7.85;;;;;;;15.91;67.58;100266.63;4989252;28;20030;-83
2022/04/04 10:52:36;;;;;;;20.90;7.55;;;;;;;15.75;68.64;100252.16;4978167;28;20062;-82
2022/04/04 10:55:27;;;;;;;17.98;8.00;;;;;;;16.21;67.91;100258.47;4993751;28;20504;-83
2022/04/04 10:58:14;;;;;;;16.65;8.20;;;;;;;16.26;67.68;100247.44;4981428;28;20440;-83
2022/04/04 11:00:53;;;;;;;12.23;7.45;;;;;;;16.41;67.07;100243.34;4993703;28;20046;-83
2022/04/04 11:03:29;;;;;;;11.63;6.97;;;;;;;16.51;67.48;100245.97;4981413;28;20058;-83
2022/04/04 11:09:04;;;;;;;15.18;6.57;;;;;;;16.55;67.05;100242.03;4992815;28;20099;-83
2022/04/04 11:11:54;;;;;;;14.85;7.50;;;;;;;16.54;66.62;100235.03;4992094;28;20381;-85
2022/04/04 11:14:28;;;;;;;12.10;6.55;;;;;;;16.78;66.77;100229.19;4979758;28;20077;-82
2022/04/04 11:17:05;;;;;;;14.45;6.93;;;;;;;17.02;66.39;100233.97;4993514;28;20018;-83
2022/04/04 11:20:00;;;;;;;16.60;7.22;;;;;;;17.25;66.06;100241.47;4980570;28;20080;-83
2022/04/04 11:22:27;;;;;;;11.45;6.70;;;;;;;17.22;66.98;100231.19;4975254;28;20099;-83
2022/04/04 11:24:58;;;;;;;13.70;6.78;;;;;;;17.04;66.37;100232.00;4991377;28;20033;-84
2022/04/04 11:27:27;;;;;;;13.43;6.18;;;;;;;16.88;66.79;100236.28;4991656;28;20045;-83
2022/04/04 11:29:53;;;;;;;16.85;6.95;;;;;;;16.92;66.33;100230.53;4976723;28;20105;-84
2022/04/04 11:32:29;;;;;;;13.45;6.72;;;;;;;17.41;65.14;100220.38;4974371;28;20113;-84